Latest Weather Observations for Liawenee

IDT60801

Issued at 4:31 pm EST Sunday 2 August 2015 (issued every 30 minutes, with the page automatically refreshed every 10 minutes)

About weather observations | Map of weather stations | Latest weather observations for TAS | Other Formats
Station Details ID: 096033 Name: LIAWENEE Lat: -41.90 Lon: 146.67 Height: 1057.0 m
Data from the previous 72 hours. | See also: Recent months at Liawenee
Date/Time
EST
Temp
°C
App
Temp
°C
Dew
Point
Rel
Hum
%
Delta-T
°C
Wind Press
QNH
hPa
Press
MSL
hPa
Rain
since 9 am
mm
Dir
 
Spd
km/h
Gust
km/h
Spd
kts
Gust
kts
02/04:30pm -2.6 -10.7 -3.4 94 0.2 W 30 43 16 23 994.7 996.1 4.0
02/04:00pm -2.3 -11.0 -3.4 92 0.3 W 33 50 18 27 994.6 996.0 4.0
02/03:41pm -1.8 -10.5 -3.1 91 0.4 W 33 52 18 28 994.1 995.6 4.0
02/03:30pm -1.6 -11.3 -2.6 93 0.3 W 39 50 21 27 994.2 995.7 4.0
02/03:07pm -1.3 -8.9 -2.0 95 0.2 W 28 46 15 25 994.1 995.6 4.0
02/03:00pm -1.3 -8.5 -2.0 95 0.2 W 26 41 14 22 994.5 995.9 4.0
02/02:30pm -1.4 -10.7 -2.0 96 0.2 WSW 37 50 20 27 993.8 995.2 3.2
02/02:00pm -1.1 -11.5 -1.5 97 0.1 WSW 43 61 23 33 993.8 995.2 2.0
02/01:30pm -0.1 -9.6 -0.4 98 0.1 W 39 63 21 34 994.4 995.8 1.8
02/01:29pm 0.0 -9.4 -0.3 98 0.1 W 39 63 21 34 994.2 995.7 1.8
02/01:24pm 0.0 -8.3 -0.3 98 0.1 W 33 52 18 28 994.1 995.6 1.8
02/01:02pm 0.2 -7.1 -0.1 98 0.1 NW 28 50 15 27 993.4 994.8 1.6
02/01:00pm 0.1 -6.9 -0.2 98 0.1 NW 26 39 14 21 993.4 994.8 1.6
02/12:40pm 1.0 -6.3 0.0 93 0.4 NW 28 48 15 26 993.8 995.2 1.2
02/12:30pm 1.0 -5.9 0.1 94 0.4 WNW 26 43 14 23 993.9 995.3 0.8
02/12:00pm 1.4 -4.3 0.4 93 0.4 NNW 20 35 11 19 994.6 996.0 0.4
02/11:31am 1.6 -5.7 0.0 89 0.6 NW 28 48 15 26 995.8 997.3 0.0
02/11:30am 1.6 -5.4 -0.2 88 0.7 NW 26 48 14 26 995.8 997.3 0.0
02/11:00am 1.4 -5.6 -0.2 89 0.6 NNW 26 48 14 26 996.6 998.1 0.0
02/10:32am 1.4 -6.3 -0.4 88 0.7 NW 30 48 16 26 997.3 998.9 0.0
02/10:30am 1.5 -6.2 -0.4 87 0.7 NW 30 44 16 24 997.5 999.0 0.0
02/10:01am 1.9 -5.5 -0.7 83 1.0 NW 28 50 15 27 998.0 999.6 0.0
02/10:00am 2.0 -5.4 -0.6 83 1.0 NW 28 44 15 24 998.0 999.6 0.0
02/09:30am 1.4 -6.8 -0.7 86 0.8 NW 32 54 17 29 998.7 1000.2 0.0
02/09:00am 1.4 -6.0 -0.8 85 0.9 NW 28 46 15 25 999.3 1000.9 0.0
02/08:30am 1.1 -6.3 -0.8 87 0.7 NW 28 46 15 25 999.8 1001.4 0.0
02/08:27am 1.0 -6.4 -0.8 88 0.7 NW 28 46 15 25 999.8 1001.4 0.0
02/08:00am 0.3 -6.4 -1.3 89 0.6 NNW 24 37 13 20 1000.0 1001.6 0.0
02/07:30am 0.2 -7.3 -1.2 90 0.5 NW 28 46 15 25 1000.1 1001.7 0.0
02/07:00am 0.2 -8.3 -1.5 88 0.7 NW 33 52 18 28 1000.3 1001.9 0.0
02/06:30am 0.0 -8.5 -1.6 89 0.6 NW 33 57 18 31 1000.3 1001.9 0.0
02/06:00am -0.1 -7.7 -1.8 88 0.6 NW 28 46 15 25 1000.7 1002.3 0.0
02/05:30am -0.2 -7.8 -1.8 89 0.6 NW 28 50 15 27 1001.1 1002.7 0.0
02/05:00am -0.5 -8.2 -2.7 85 0.8 NW 28 46 15 25 1001.6 1003.2 0.0
02/04:32am -0.1 -8.4 -2.0 87 0.7 NW 32 54 17 29 1001.7 1003.3 0.0
02/04:30am -0.1 -8.4 -1.8 88 0.6 NW 32 48 17 26 1001.7 1003.3 0.0
02/04:20am -0.2 -7.8 -1.9 88 0.6 NW 28 48 15 26 1001.9 1003.5 0.0
02/04:00am -0.3 -7.5 -1.9 89 0.6 NW 26 43 14 23 1002.0 1003.6 0.0
02/03:30am -0.5 -7.3 -2.2 88 0.6 NW 24 39 13 21 1002.6 1004.2 0.0
02/03:00am -0.3 -7.9 -1.9 89 0.6 WNW 28 43 15 23 1002.8 1004.4 0.0
02/02:30am -0.4 -7.6 -2.3 87 0.7 WNW 26 39 14 21 1003.2 1004.9 0.0
02/02:00am -0.6 -8.7 -2.8 85 0.8 WNW 30 59 16 32 1003.4 1005.1 0.0
02/01:51am -0.4 -9.0 -2.6 85 0.8 WNW 33 59 18 32 1003.4 1005.1 0.0
02/01:30am -0.7 -10.1 -3.2 83 0.9 WNW 37 50 20 27 1003.8 1005.5 0.0
02/01:00am -0.8 -9.2 -2.7 87 0.6 WNW 32 43 17 23 1004.0 1005.7 0.0
02/12:30am -0.5 -10.7 -2.9 84 0.8 WNW 41 65 22 35 1004.1 1005.8 0.0
02/12:00am -0.6 -10.8 -3.0 84 0.8 WNW 41 63 22 34 1004.0 1005.7 0.0
 
Date/Time
EST
Temp
°C
App
Temp
°C
Dew
Point
Rel
Hum
%
Delta-T
°C
Wind Press
QNH
hPa
Press
MSL
hPa
Rain
since 9 am
mm
Dir
 
Spd
km/h
Gust
km/h
Spd
kts
Gust
kts
01/11:30pm -0.7 -10.8 -2.7 86 0.7 WNW 41 61 22 33 1004.4 1006.2 0.0
01/11:00pm -0.8 -10.6 -2.8 86 0.7 WNW 39 57 21 31 1004.4 1006.2 0.0
01/10:51pm -0.9 -10.3 -2.6 88 0.6 WNW 37 56 20 30 1004.7 1006.4 0.0
01/10:30pm -1.1 -9.6 -3.1 86 0.7 WNW 32 48 17 26 1005.1 1006.8 0.0
01/10:00pm -1.2 -9.9 -3.7 83 0.8 WNW 33 54 18 29 1005.3 1007.1 0.0
01/09:30pm -1.1 -9.5 -2.8 88 0.6 WNW 32 50 17 27 1005.3 1007.1 0.0
01/09:18pm -1.1 -8.8 -3.3 85 0.7 WNW 28 54 15 29 1005.3 1007.1 0.0
01/09:00pm -1.4 -9.2 -3.6 85 0.7 WNW 28 44 15 24 1005.4 1007.2 0.0
01/08:30pm -1.1 -8.8 -3.1 86 0.7 WNW 28 50 15 27 1005.8 1007.5 0.0
01/08:24pm -0.9 -8.6 -2.9 86 0.7 WNW 28 50 15 27 1005.9 1007.6 0.0
01/08:00pm -1.3 -8.3 -3.5 85 0.7 WNW 24 44 13 24 1005.9 1007.6 0.0
01/07:30pm -1.5 -7.8 -3.7 85 0.7 WNW 20 39 11 21 1005.8 1007.5 0.0
01/07:00pm -1.4 -9.6 -3.6 85 0.7 W 30 43 16 23 1005.5 1007.3 0.0
01/06:30pm -1.7 -9.5 -4.0 84 0.7 WNW 28 44 15 24 1005.4 1007.2 0.0
01/06:17pm -1.5 -9.3 -3.5 86 0.6 WNW 28 48 15 26 1005.2 1006.9 0.0
01/06:00pm -1.6 -7.6 -3.2 89 0.5 WNW 19 32 10 17 1005.0 1006.7 0.0
01/05:30pm -1.5 -8.5 -3.4 87 0.6 WNW 24 33 13 18 1004.7 1006.4 0.0
01/05:00pm -1.1 -8.0 -2.7 89 0.5 W 24 35 13 19 1004.4 1006.2 0.0
01/04:30pm -0.4 -7.0 -3.3 81 1.0 W 22 37 12 20 1004.3 1006.0 0.0
01/04:00pm 0.7 -5.5 -2.9 77 1.4 W 20 32 11 17 1004.1 1005.8 0.0
01/03:30pm 0.9 -6.5 -3.6 72 1.7 W 26 39 14 21 1004.0 1005.7 0.0
01/03:00pm 0.8 -8.3 -3.5 73 1.6 W 35 50 19 27 1003.7 1005.4 0.0
01/02:38pm 1.3 -6.9 -3.7 69 1.9 W 30 48 16 26 1003.7 1005.4 0.0
01/02:30pm 1.3 -6.9 -4.3 66 2.0 W 30 43 16 23 1003.2 1004.9 0.0
01/02:00pm 1.1 -8.9 -4.7 65 2.1 WSW 39 54 21 29 1003.0 1004.7 0.0
01/01:30pm 1.0 -8.8 -3.3 73 1.6 W 39 52 21 28 1002.9 1004.6 0.0
01/01:04pm 1.0 -8.1 -3.8 70 1.8 W 35 63 19 34 1002.6 1004.2 0.0
01/01:00pm 1.0 -8.1 -3.7 71 1.7 WSW 35 52 19 28 1002.4 1004.1 0.0
01/12:36pm 0.5 -9.0 -3.9 72 1.6 W 37 56 20 30 1002.2 1003.9 0.0
01/12:30pm 0.8 -8.6 -3.1 75 1.5 W 37 54 20 29 1002.1 1003.8 0.0
01/12:09pm 0.7 -8.8 -3.6 73 1.6 WSW 37 56 20 30 1002.0 1003.6 0.0
01/12:00pm 0.4 -9.0 -3.1 77 1.3 WSW 37 50 20 27 1002.0 1003.6 0.0
01/11:30am 0.1 -9.3 -3.3 78 1.2 W 37 56 20 30 1002.2 1003.9 0.0
01/11:13am 0.0 -9.5 -3.5 77 1.2 WSW 37 57 20 31 1002.0 1003.6 0.0
01/11:00am -0.4 -9.1 -3.3 81 1.0 WSW 33 50 18 27 1002.0 1003.6 0.0
01/10:42am -0.6 -9.3 -3.6 80 1.0 WSW 33 52 18 28 1001.9 1003.5 0.0
01/10:30am -1.0 -9.7 -3.7 82 0.9 WSW 33 48 18 26 1001.6 1003.2 0.0
01/10:01am -0.7 -9.4 -3.5 81 1.0 WSW 33 54 18 29 1000.8 1002.4 0.0
01/10:00am -0.5 -9.0 -3.3 81 1.0 WSW 32 46 17 25 1000.7 1002.3 0.0
01/09:31am -0.8 -10.6 -2.8 86 0.7 WSW 39 57 21 31 1000.3 1002.3 0.0
01/09:30am -0.9 -11.1 -2.9 86 0.7 WSW 41 57 22 31 1000.2 1002.1 0.0
01/09:15am -0.9 -10.0 -3.4 83 0.8 WSW 35 56 19 30 999.9 1001.8 0.0
01/09:00am -1.6 -11.4 -3.0 90 0.4 WSW 39 56 21 30 999.7 1001.6 7.2
01/08:30am -0.9 -10.3 -2.8 87 0.6 WSW 37 56 20 30 999.0 1000.9 7.2
01/08:06am -0.5 -9.7 -1.5 93 0.3 WSW 37 67 20 36 999.0 1000.9 7.0
01/08:00am -0.1 -8.5 -0.9 94 0.3 W 33 44 18 24 998.6 1000.4 7.0
01/07:30am 0.2 -6.8 -0.4 96 0.2 W 26 37 14 20 997.7 999.5 7.0
01/07:00am 0.4 -6.2 -0.2 96 0.2 W 24 35 13 19 997.5 999.3 7.0
01/06:30am 0.6 -7.1 -0.1 95 0.3 W 30 43 16 23 996.9 998.7 7.0
01/06:00am 1.1 -5.0 0.4 95 0.3 WNW 22 35 12 19 996.7 998.5 7.0
01/05:30am 1.2 -5.3 0.5 95 0.3 NW 24 39 13 21 996.9 998.7 6.0
01/05:00am 1.5 -4.2 0.6 94 0.4 NNW 20 33 11 18 996.6 998.4 5.0
01/04:30am 1.8 -5.4 0.8 93 0.4 NNW 28 46 15 25 996.5 998.3 4.0
01/04:02am 1.6 -5.6 0.6 93 0.4 NNW 28 48 15 26 996.6 998.4 3.2
01/04:00am 1.5 -5.3 0.5 93 0.4 NNW 26 46 14 25 996.6 998.4 3.2
01/03:33am 1.1 -6.2 0.2 94 0.4 NNW 28 46 15 25 997.3 999.2 2.8
01/03:30am 1.1 -6.2 0.1 93 0.4 NNW 28 43 15 23 997.3 999.2 2.8
01/03:00am 1.0 -7.0 0.1 94 0.4 NNW 32 56 17 30 998.0 999.9 2.8
01/02:30am 1.0 -6.7 0.1 94 0.4 NNW 30 52 16 28 999.0 1000.9 2.4
01/02:00am 0.9 -6.4 0.0 94 0.4 NNW 28 50 15 27 999.8 1001.7 1.6
01/01:30am 1.1 -7.1 0.1 93 0.4 NNW 33 63 18 34 1000.0 1001.9 1.0
01/01:00am 1.1 -8.3 -0.2 91 0.5 NNW 39 74 21 40 1000.3 1002.3 0.6
01/12:34am 0.9 -7.2 -0.1 93 0.4 NNW 32 74 17 40 1001.2 1003.2 0.6
01/12:31am 0.7 -6.6 0.0 95 0.3 NNW 28 46 15 25 1001.2 1003.2 0.6
01/12:30am 0.7 -7.0 0.0 95 0.3 NNW 30 46 16 25 1001.2 1003.2 0.6
01/12:00am 0.8 -7.2 0.2 96 0.2 NNW 32 57 17 31 1002.4 1004.4 0.6
 
Date/Time
EST
Temp
°C
App
Temp
°C
Dew
Point
Rel
Hum
%
Delta-T
°C
Wind Press
QNH
hPa
Press
MSL
hPa
Rain
since 9 am
mm
Dir
 
Spd
km/h
Gust
km/h
Spd
kts
Gust
kts
31/11:30pm 1.0 -6.7 0.0 93 0.4 NNW 30 54 16 29 1003.1 1005.1 0.4
31/11:00pm 1.1 -6.2 0.1 93 0.4 NNW 28 52 15 28 1003.9 1005.9 0.2
31/10:30pm 1.0 -6.6 0.3 95 0.3 NNW 30 52 16 28 1004.1 1006.1 0.2
31/10:04pm 1.3 -5.9 0.6 95 0.3 NNW 28 52 15 28 1004.4 1006.5 0.2
31/10:00pm 1.3 -5.5 0.6 95 0.3 NNW 26 52 14 28 1004.5 1006.6 0.2
31/09:50pm 1.1 -6.1 0.7 97 0.2 NNW 28 48 15 26 1005.1 1007.2 0.0
31/09:30pm 1.0 -5.5 0.4 96 0.2 NNW 24 37 13 20 1005.2 1007.3 0.0
31/09:00pm 1.1 -5.4 0.1 93 0.4 NW 24 46 13 25 1006.2 1008.3 0.0
31/08:35pm 1.0 -6.3 -0.3 91 0.5 NW 28 46 15 25 1006.5 1008.6 0.0
31/08:30pm 1.2 -6.5 -0.3 90 0.6 NW 30 46 16 25 1006.5 1008.6 0.0
31/08:00pm 1.0 -6.7 -0.3 91 0.5 NW 30 52 16 28 1006.8 1008.9 0.0
31/07:46pm 0.9 -6.4 -0.2 92 0.4 NW 28 46 15 25 1006.9 1009.0 0.0
31/07:30pm 0.9 -5.7 -0.2 92 0.4 NW 24 41 13 22 1007.1 1009.2 0.0
31/07:00pm 0.9 -4.0 -0.4 91 0.5 NNW 15 28 8 15 1007.2 1009.3 0.0
31/06:30pm 0.9 -5.0 -0.7 89 0.6 NW 20 35 11 19 1007.5 1009.7 0.0
31/06:00pm 0.9 -5.7 -0.5 90 0.5 NW 24 37 13 20 1008.0 1010.1 0.0
31/05:30pm 0.8 -6.2 -0.8 89 0.6 NW 26 46 14 25 1007.8 1009.9 0.0
31/05:00pm 0.6 -5.4 -1.3 87 0.8 NW 20 37 11 20 1008.0 1010.1 0.0
31/04:30pm 1.0 -4.3 -0.6 89 0.6 NW 17 26 9 14 1008.1 1010.2 0.0
31/04:00pm 1.3 -4.4 -0.6 87 0.7 NW 19 30 10 16 1008.8 1010.9 0.0
31/03:30pm 1.6 -3.6 -0.2 88 0.7 NNW 17 26 9 14 1009.2 1011.4 0.0
31/03:00pm 1.9 -3.8 -0.5 84 0.9 NNW 19 32 10 17 1009.3 1011.5 0.0
31/02:30pm 2.8 -3.0 -0.1 81 1.2 NNW 20 35 11 19 1009.5 1011.7 0.0
31/02:00pm 2.4 -4.2 -0.4 82 1.1 NW 24 35 13 19 1010.0 1012.2 0.0
31/01:30pm 2.3 -4.0 -1.1 78 1.3 NW 22 39 12 21 1010.3 1012.5 0.0
31/01:00pm 2.1 -3.7 -1.2 79 1.3 WNW 19 35 10 19 1010.6 1012.8 0.0
31/12:30pm 2.1 -3.3 -1.5 77 1.4 WNW 17 30 9 16 1011.3 1013.5 0.0
31/12:00pm 1.8 -4.0 -1.3 80 1.2 WNW 19 30 10 16 1011.6 1013.9 0.0
31/11:30am 1.2 -4.5 -0.9 86 0.8 WNW 19 30 10 16 1011.9 1014.1 0.0
31/11:00am 0.6 -5.5 -2.3 81 1.1 WNW 20 30 11 16 1012.1 1014.3 0.0
31/10:30am 0.5 -6.3 -1.6 86 0.8 W 24 33 13 18 1012.0 1014.2 0.0
31/10:00am 0.7 -5.3 -1.5 85 0.9 W 20 30 11 16 1011.5 1013.8 0.0
31/09:30am 0.2 -5.3 -2.0 85 0.8 WNW 17 22 9 12 1011.5 1013.8 0.0
31/09:00am -1.3 -4.4 -2.7 90 0.4 W 4 22 2 12 1011.3 1013.5 6.2
31/08:30am -1.5 -6.0 -3.1 89 0.5 WNW 11 19 6 10 1011.1 1013.3 6.2
31/08:00am -2.9 -8.3 -4.2 91 0.3 WNW 15 19 8 10 1011.1 1013.3 6.0
31/07:30am -2.4 -8.5 -3.8 90 0.4 W 19 24 10 13 1010.6 1012.8 6.0
31/07:00am -2.5 -8.2 -3.9 90 0.4 W 17 22 9 12 1010.8 1013.0 6.0
31/06:30am -3.1 -8.9 -4.6 89 0.4 W 17 24 9 13 1010.1 1012.3 6.0
31/06:00am -2.8 -8.6 -4.2 90 0.3 W 17 24 9 13 1009.9 1012.0 6.0
31/05:30am -2.3 -8.0 -3.4 92 0.3 W 17 28 9 15 1009.5 1011.7 6.0
31/05:00am -2.4 -7.7 -3.7 91 0.3 WSW 15 20 8 11 1009.4 1011.6 6.0
31/04:30am -3.2 -8.6 -4.6 90 0.3 WSW 15 24 8 13 1009.1 1011.3 6.0
31/04:00am -2.4 -8.7 -4.3 87 0.5 W 20 26 11 14 1009.0 1011.1 6.0
31/03:30am -1.9 -8.1 -2.9 93 0.3 WSW 20 26 11 14 1008.6 1010.8 6.0
31/03:00am -2.0 -9.7 -3.3 91 0.4 WSW 28 43 15 23 1008.2 1010.3 6.0
31/02:30am -2.1 -9.9 -3.4 91 0.4 WSW 28 41 15 22 1008.1 1010.2 6.0
31/02:00am -2.2 -8.8 -3.2 93 0.2 WSW 22 32 12 17 1008.0 1010.1 6.0
31/01:30am -2.2 -9.2 -3.6 90 0.4 WSW 24 32 13 17 1007.2 1009.3 6.0
31/01:00am -2.1 -9.9 -4.1 86 0.6 WSW 28 44 15 24 1007.0 1009.1 6.0
31/12:43am -1.6 -9.3 -2.6 93 0.3 WSW 28 52 15 28 1006.5 1008.6 6.0
31/12:30am -1.4 -8.6 -1.7 98 0.0 WSW 26 37 14 20 1006.1 1008.2 5.8
31/12:00am -1.3 -9.2 -1.9 96 0.2 WSW 30 39 16 21 1005.4 1007.5 5.8
 
Date/Time
EST
Temp
°C
App
Temp
°C
Dew
Point
Rel
Hum
%
Delta-T
°C
Wind Press
QNH
hPa
Press
MSL
hPa
Rain
since 9 am
mm
Dir
 
Spd
km/h
Gust
km/h
Spd
kts
Gust
kts
30/11:30pm -1.5 -10.1 -2.2 95 0.2 SW 33 44 18 24 1005.1 1007.2 5.8
30/11:09pm -1.2 -10.1 -2.0 94 0.2 SW 35 56 19 30 1005.0 1007.0 5.8
30/11:00pm -1.2 -9.7 -2.0 94 0.2 SW 33 50 18 27 1004.9 1006.9 5.8
30/10:30pm -0.9 -8.4 -1.3 97 0.1 SW 28 44 15 24 1004.7 1006.7 5.8
30/10:00pm -0.7 -9.2 -1.5 94 0.3 SW 33 48 18 26 1004.1 1006.1 5.8
30/09:34pm -0.3 -9.4 -0.7 97 0.1 WSW 37 63 20 34 1003.3 1005.3 5.8
30/09:30pm -0.1 -9.6 -0.4 98 0.1 WSW 39 54 21 29 1003.3 1005.3 5.8
30/09:00pm 0.5 -8.1 -0.1 96 0.2 WSW 35 50 19 27 1001.8 1003.7 5.6
30/08:30pm 0.8 -6.5 0.1 95 0.3 W 28 41 15 22 1001.8 1003.7 5.6
30/08:00pm 0.9 -6.4 0.3 96 0.2 W 28 35 15 19 1001.7 1003.6 5.4
30/07:30pm 1.1 -6.9 0.4 95 0.3 W 32 43 17 23 1001.6 1003.5 5.2
30/07:20pm 2.0 -5.1 1.3 95 0.3 WNW 28 50 15 27 1001.2 1003.2 5.0
30/07:00pm 2.1 -4.7 1.1 93 0.4 NW 26 43 14 23 1000.4 1002.4 3.8
30/06:40pm 2.1 -5.0 1.1 93 0.4 NNW 28 52 15 28 999.7 1001.6 3.6
30/06:30pm 1.9 -4.9 1.0 94 0.4 NNW 26 43 14 23 999.8 1001.7 3.4
30/06:18pm 1.9 -5.3 0.9 93 0.4 NNW 28 46 15 25 1000.2 1002.1 3.4
30/06:00pm 1.6 -5.6 0.6 93 0.4 NNW 28 44 15 24 1000.3 1002.3 2.6
30/05:35pm 1.8 -5.4 0.8 93 0.4 NNW 28 54 15 29 1000.1 1002.0 2.2
30/05:30pm 1.8 -5.4 0.8 93 0.4 NNW 28 43 15 23 1000.1 1002.0 2.0
30/05:00pm 1.9 -6.2 0.7 92 0.5 NNW 33 52 18 28 1000.3 1002.3 1.8

Other Formats:

Comma delimited format used in spreadsheet applications
http://www.bom.gov.au/fwo/IDT60801/IDT60801.95959.axf

JavaScript Object Notation format (JSON) in row-major order
http://www.bom.gov.au/fwo/IDT60801/IDT60801.95959.json